KSSI/SSI METAR and TAF weather

Enter ICAO airport designator
Station Type Date Time Source
KSSI METAR 2019/10/15 18:53 UTC NOAA

KSSI 151853Z AUTO 03006KT 10SM FEW070 SCT085 BKN120 22/19 A3003 RMK AO2 RAB1757E25 SLP171 P0000 T02220194


Station Type Date Time Source
KSSI Decoded METAR 2019/10/15 18:53 UTC NOAA

BRUNSWICK MC KINNON AIRPORT , GA, United States (KSSI) 31-09N 081-23W 6M
Oct 15, 2019 - 02:53 PM EDT / 2019.10.15 1853 UTC
Wind: from the NNE (030 degrees) at 7 MPH (6 KT):0
Visibility: 10 mile(s):0
Sky conditions: mostly cloudy
Precipitation last hour: A trace
Temperature: 72.0 F (22.2 C)
Dew Point: 66.9 F (19.4 C)
Relative Humidity: 84%
Pressure (altimeter): 30.03 in. Hg (1016 hPa)
ob: KSSI 151853Z AUTO 03006KT 10SM FEW070 SCT085 BKN120 22/19 A3003 RMK AO2 RAB1757E25 SLP171 P0000 T02220194
cycle: 19

Station Type Date Time Source
KSSI TAF 2019/10/15 12:30 UTC NOAA

TAF KSSI 151126Z 1512/1612 VRB04KT P6SM -SHRA SCT030 BKN050 OVC100
TEMPO 1512/1516 4SM SHRA BR SCT030 OVC050
FM151600 08007KT 4SM SHRA BR SCT015 OVC030
FM160100 13009KT 5SM -SHRA BR SCT015 OVC030

Example: see airport list